Time;durP1;ratioP1;P1;durP2;ratioP2;P2;SDS_P1;SDS_P2;PMS_P1;PMS_P2;Temp;Humidity;BMP_temperature;BMP_pressure;BME280_temperature;BME280_humidity;BME280_pressure;Samples;Min_cycle;Max_cycle;Signal;HPM_P1;HPM_P2
2021/08/31 00:01:51;;;;;;;6.70;3.78;;;;;;;;;;5033354;28;20033;-54
2021/08/31 00:04:17;;;;;;;9.00;3.70;;;;;;;;;;5032764;28;20025;-54
2021/08/31 00:06:44;;;;;;;5.88;2.90;;;;;;;;;;5033470;28;20022;-54
2021/08/31 00:09:10;;;;;;;5.20;3.67;;;;;;;;;;5032389;28;20068;-54
2021/08/31 00:11:36;;;;;;;6.65;3.65;;;;;;;;;;5032990;28;20061;-54
2021/08/31 00:14:02;;;;;;;5.47;3.10;;;;;;;;;;5031810;28;20017;-54
2021/08/31 00:16:28;;;;;;;5.55;3.08;;;;;;;;;;5033040;28;20402;-54
2021/08/31 00:18:54;;;;;;;6.80;3.53;;;;;;;;;;5033214;28;20029;-54
2021/08/31 00:21:20;;;;;;;5.35;3.30;;;;;;;;;;5033307;28;20033;-53
2021/08/31 00:23:46;;;;;;;5.78;3.17;;;;;;;;;;5030827;28;20052;-54
2021/08/31 00:26:12;;;;;;;6.07;3.30;;;;;;;;;;5032805;28;20060;-54
2021/08/31 00:28:38;;;;;;;6.03;3.42;;;;;;;;;;5032785;28;20075;-54
2021/08/31 00:31:04;;;;;;;7.68;3.22;;;;;;;;;;5032498;28;20075;-54
2021/08/31 00:33:30;;;;;;;7.28;3.90;;;;;;;;;;5031894;28;20075;-54
2021/08/31 00:35:58;;;;;;;7.05;3.75;;;;;;;;;;5032906;28;20446;-54
2021/08/31 00:38:24;;;;;;;5.22;3.17;;;;;;;;;;5032235;28;20041;-54
2021/08/31 00:40:50;;;;;;;4.82;3.10;;;;;;;;;;5032584;28;20021;-54
2021/08/31 00:43:19;;;;;;;5.68;3.30;;;;;;;;;;5032812;28;20087;-54
2021/08/31 00:45:45;;;;;;;7.53;3.85;;;;;;;;;;5031447;28;20037;-53
2021/08/31 00:48:11;;;;;;;6.00;3.38;;;;;;;;;;5021785;28;20407;-54
2021/08/31 00:50:39;;;;;;;8.48;3.45;;;;;;;;;;5020730;28;20435;-54
2021/08/31 00:53:05;;;;;;;6.05;3.47;;;;;;;;;;5031787;28;20467;-54
2021/08/31 00:55:31;;;;;;;12.93;3.90;;;;;;;;;;5030071;28;20393;-54
2021/08/31 00:57:57;;;;;;;8.73;3.95;;;;;;;;;;5032800;28;20045;-54
2021/08/31 01:00:23;;;;;;;6.47;3.40;;;;;;;;;;5032089;28;20440;-55
2021/08/31 01:02:49;;;;;;;6.43;3.63;;;;;;;;;;5032337;28;20041;-54
2021/08/31 01:05:15;;;;;;;8.52;3.85;;;;;;;;;;5032387;28;20029;-54
2021/08/31 01:07:41;;;;;;;5.50;3.47;;;;;;;;;;5031877;28;20088;-54
2021/08/31 01:10:09;;;;;;;7.28;4.43;;;;;;;;;;5032240;28;20045;-55
2021/08/31 01:12:36;;;;;;;13.32;4.20;;;;;;;;;;5032457;28;20033;-54
2021/08/31 01:15:02;;;;;;;8.77;5.13;;;;;;;;;;5031350;28;20033;-53
2021/08/31 01:17:29;;;;;;;6.28;4.22;;;;;;;;;;5032243;28;20374;-53
2021/08/31 01:19:55;;;;;;;7.63;3.90;;;;;;;;;;5032452;28;20024;-53
2021/08/31 01:22:21;;;;;;;6.65;3.22;;;;;;;;;;5031779;28;20044;-54
2021/08/31 01:24:48;;;;;;;6.75;3.38;;;;;;;;;;5031814;28;20025;-54
2021/08/31 01:27:14;;;;;;;10.45;3.85;;;;;;;;;;5032425;28;20124;-54
2021/08/31 01:29:40;;;;;;;7.22;3.25;;;;;;;;;;5029988;28;20053;-54
2021/08/31 01:32:07;;;;;;;7.38;3.50;;;;;;;;;;5032341;28;20032;-53
2021/08/31 01:34:33;;;;;;;5.18;3.38;;;;;;;;;;5032992;28;20029;-53
2021/08/31 01:36:59;;;;;;;10.77;4.15;;;;;;;;;;5036010;28;20055;-54
2021/08/31 01:39:26;;;;;;;9.02;4.15;;;;;;;;;;5035381;28;20026;-53
2021/08/31 01:41:52;;;;;;;5.20;3.45;;;;;;;;;;5040800;28;20124;-53
2021/08/31 01:44:18;;;;;;;8.20;3.83;;;;;;;;;;5055230;28;20037;-54
2021/08/31 01:46:44;;;;;;;6.63;3.97;;;;;;;;;;5037123;28;20079;-54
2021/08/31 01:49:10;;;;;;;7.03;3.78;;;;;;;;;;5036032;28;20087;-53
2021/08/31 01:51:36;;;;;;;9.93;3.83;;;;;;;;;;5036103;28;20025;-54
2021/08/31 01:54:03;;;;;;;13.55;3.38;;;;;;;;;;5034304;28;20341;-53
2021/08/31 01:56:28;;;;;;;5.40;3.38;;;;;;;;;;5035689;28;20029;-54
2021/08/31 01:58:54;;;;;;;6.80;3.40;;;;;;;;;;5035376;28;20333;-53
2021/08/31 02:01:20;;;;;;;6.60;3.42;;;;;;;;;;5034931;28;20068;-53
2021/08/31 02:03:46;;;;;;;5.60;3.22;;;;;;;;;;5034882;28;20467;-54
2021/08/31 02:06:12;;;;;;;4.72;3.20;;;;;;;;;;5035722;28;20036;-53
2021/08/31 02:08:38;;;;;;;8.15;3.45;;;;;;;;;;5035228;28;20108;-53
2021/08/31 02:11:04;;;;;;;5.72;3.60;;;;;;;;;;5035255;28;20029;-53
2021/08/31 02:13:30;;;;;;;5.10;3.08;;;;;;;;;;5033902;28;20037;-53
2021/08/31 02:15:56;;;;;;;7.15;3.20;;;;;;;;;;5028292;28;20252;-53
2021/08/31 02:18:22;;;;;;;4.90;3.33;;;;;;;;;;5035160;28;20367;-54
2021/08/31 02:20:48;;;;;;;5.85;3.40;;;;;;;;;;5035325;28;20025;-54
2021/08/31 02:23:14;;;;;;;5.20;3.35;;;;;;;;;;5034305;28;20120;-53
2021/08/31 02:25:40;;;;;;;5.32;3.00;;;;;;;;;;5034934;28;20018;-54
2021/08/31 02:28:06;;;;;;;4.97;3.03;;;;;;;;;;5034946;28;20029;-53
2021/08/31 02:30:32;;;;;;;6.13;3.67;;;;;;;;;;5033015;28;20431;-54
2021/08/31 02:33:02;;;;;;;3.75;2.70;;;;;;;;;;5034686;28;20029;-54
2021/08/31 02:35:28;;;;;;;5.75;3.05;;;;;;;;;;5034674;28;20053;-53
2021/08/31 02:37:54;;;;;;;6.63;3.35;;;;;;;;;;5035022;28;20049;-54
2021/08/31 02:40:20;;;;;;;6.18;3.03;;;;;;;;;;5033809;28;20049;-54
2021/08/31 02:42:47;;;;;;;5.25;3.13;;;;;;;;;;5034570;28;20033;-54
2021/08/31 02:45:13;;;;;;;6.85;2.60;;;;;;;;;;5033228;28;20328;-54
2021/08/31 02:47:40;;;;;;;5.05;3.15;;;;;;;;;;5014395;28;20030;-54
2021/08/31 02:50:06;;;;;;;8.65;3.05;;;;;;;;;;5014859;28;20038;-54
2021/08/31 02:52:32;;;;;;;5.05;2.95;;;;;;;;;;5014810;28;20026;-53
2021/08/31 02:54:58;;;;;;;5.63;3.08;;;;;;;;;;5027933;28;20022;-54
2021/08/31 02:57:24;;;;;;;7.35;3.30;;;;;;;;;;5034859;28;20021;-54
2021/08/31 02:59:50;;;;;;;10.57;3.05;;;;;;;;;;5034538;28;20116;-54
2021/08/31 03:02:16;;;;;;;6.35;3.45;;;;;;;;;;5033550;28;20030;-54
2021/08/31 03:04:43;;;;;;;8.40;3.58;;;;;;;;;;5034080;28;20021;-54
2021/08/31 03:07:11;;;;;;;6.20;2.75;;;;;;;;;;5034398;28;20026;-54
2021/08/31 03:09:37;;;;;;;5.72;3.53;;;;;;;;;;5034225;28;20147;-54
2021/08/31 03:12:03;;;;;;;7.53;3.50;;;;;;;;;;5034330;28;20013;-53
2021/08/31 03:14:30;;;;;;;6.70;3.80;;;;;;;;;;5034078;28;20032;-53
2021/08/31 03:16:56;;;;;;;6.03;3.78;;;;;;;;;;5033002;28;20074;-54
2021/08/31 03:19:24;;;;;;;4.07;3.15;;;;;;;;;;5034266;28;20022;-54
2021/08/31 03:21:54;;;;;;;6.00;3.47;;;;;;;;;;5033763;28;20144;-53
2021/08/31 03:24:20;;;;;;;7.93;3.65;;;;;;;;;;5033133;28;20087;-54
2021/08/31 03:26:46;;;;;;;7.15;4.03;;;;;;;;;;5033908;28;20108;-54
2021/08/31 03:29:12;;;;;;;8.73;3.40;;;;;;;;;;5034202;28;20029;-53
2021/08/31 03:31:38;;;;;;;5.90;3.75;;;;;;;;;;5031207;28;20029;-53
2021/08/31 03:34:04;;;;;;;9.32;4.20;;;;;;;;;;5033162;28;20456;-54
2021/08/31 03:36:30;;;;;;;7.13;3.58;;;;;;;;;;5034121;28;20037;-54
2021/08/31 03:38:56;;;;;;;6.25;3.47;;;;;;;;;;5033497;28;20083;-53
2021/08/31 03:41:22;;;;;;;5.75;3.58;;;;;;;;;;5033848;28;20017;-53
2021/08/31 03:43:48;;;;;;;8.18;3.85;;;;;;;;;;5032691;28;20498;-54
2021/08/31 03:46:14;;;;;;;7.55;3.90;;;;;;;;;;5032579;28;20079;-53
2021/08/31 03:48:40;;;;;;;6.22;4.05;;;;;;;;;;5033883;28;20025;-53
2021/08/31 03:51:07;;;;;;;11.95;3.92;;;;;;;;;;5032560;28;20079;-54
2021/08/31 03:53:33;;;;;;;7.00;3.70;;;;;;;;;;5032425;28;20104;-53
2021/08/31 03:55:59;;;;;;;8.63;3.88;;;;;;;;;;5024947;28;20010;-53
2021/08/31 03:58:25;;;;;;;5.22;3.42;;;;;;;;;;5032758;28;20025;-54
2021/08/31 04:00:51;;;;;;;7.75;4.30;;;;;;;;;;5032679;28;20049;-54
2021/08/31 04:03:18;;;;;;;7.85;3.65;;;;;;;;;;5012710;28;20459;-54
2021/08/31 04:05:44;;;;;;;5.93;3.70;;;;;;;;;;5013385;28;20631;-54
2021/08/31 04:08:10;;;;;;;7.50;3.95;;;;;;;;;;5013654;28;20034;-54
2021/08/31 04:10:36;;;;;;;7.13;4.18;;;;;;;;;;5029207;28;20064;-53
2021/08/31 04:13:02;;;;;;;8.00;3.65;;;;;;;;;;5033087;28;20466;-53
2021/08/31 04:15:28;;;;;;;8.13;4.03;;;;;;;;;;5032917;28;20032;-53
2021/08/31 04:17:54;;;;;;;6.82;4.05;;;;;;;;;;5031999;28;20454;-53
2021/08/31 04:20:20;;;;;;;6.30;3.83;;;;;;;;;;5033440;28;20022;-53
2021/08/31 04:22:46;;;;;;;11.45;3.88;;;;;;;;;;5032717;28;20037;-53
2021/08/31 04:25:12;;;;;;;5.53;3.45;;;;;;;;;;5031663;28;20418;-53
2021/08/31 04:27:38;;;;;;;6.00;3.63;;;;;;;;;;5032898;28;20347;-53
2021/08/31 04:30:04;;;;;;;11.00;3.78;;;;;;;;;;5033796;28;20075;-54
2021/08/31 04:32:30;;;;;;;8.88;3.90;;;;;;;;;;5031889;28;20029;-53
2021/08/31 04:35:02;;;;;;;9.20;4.32;;;;;;;;;;5032189;28;20083;-53
2021/08/31 04:37:28;;;;;;;7.20;3.78;;;;;;;;;;5033289;28;20044;-53
2021/08/31 04:39:54;;;;;;;9.40;4.28;;;;;;;;;;5032383;28;20463;-54
2021/08/31 04:42:20;;;;;;;11.90;4.28;;;;;;;;;;5032380;28;20049;-53
2021/08/31 04:44:46;;;;;;;8.48;3.80;;;;;;;;;;5031936;28;20021;-53
2021/08/31 04:47:12;;;;;;;5.45;3.40;;;;;;;;;;5032272;28;20068;-53
2021/08/31 04:49:38;;;;;;;6.82;3.78;;;;;;;;;;5032908;28;20029;-53
2021/08/31 04:52:04;;;;;;;6.05;3.58;;;;;;;;;;5032753;28;20121;-53
2021/08/31 04:54:30;;;;;;;7.63;4.68;;;;;;;;;;5031705;28;20097;-53
2021/08/31 04:56:56;;;;;;;4.78;3.30;;;;;;;;;;5032347;28;20121;-54
2021/08/31 04:59:22;;;;;;;6.00;3.63;;;;;;;;;;5032094;28;20025;-53
2021/08/31 05:01:48;;;;;;;6.93;3.53;;;;;;;;;;5031745;28;20040;-54
2021/08/31 05:04:14;;;;;;;10.73;4.40;;;;;;;;;;5031534;28;20394;-53
2021/08/31 05:06:40;;;;;;;7.47;4.22;;;;;;;;;;5031814;28;20041;-54
2021/08/31 05:09:06;;;;;;;7.38;4.03;;;;;;;;;;5032129;28;20473;-54
2021/08/31 05:11:32;;;;;;;6.63;4.07;;;;;;;;;;5035731;28;20028;-53
2021/08/31 05:13:58;;;;;;;7.82;3.55;;;;;;;;;;5035094;28;20021;-53
2021/08/31 05:16:24;;;;;;;6.50;3.83;;;;;;;;;;5036136;28;20048;-54
2021/08/31 05:18:50;;;;;;;6.38;3.13;;;;;;;;;;5036226;28;20128;-54
2021/08/31 05:21:16;;;;;;;7.13;3.80;;;;;;;;;;5036596;28;20103;-54
2021/08/31 05:23:42;;;;;;;6.55;4.03;;;;;;;;;;5035725;28;20034;-53
2021/08/31 05:26:08;;;;;;;7.07;3.45;;;;;;;;;;5035608;28;20455;-53
2021/08/31 05:28:34;;;;;;;11.55;4.13;;;;;;;;;;5035955;28;20091;-54
2021/08/31 05:31:00;;;;;;;6.72;3.72;;;;;;;;;;5036361;28;20543;-52
2021/08/31 05:33:26;;;;;;;6.25;3.60;;;;;;;;;;5034242;28;20040;-52
2021/08/31 05:35:52;;;;;;;5.72;3.38;;;;;;;;;;5036238;28;20352;-52
2021/08/31 05:38:18;;;;;;;10.15;4.32;;;;;;;;;;5036190;28;20467;-52
2021/08/31 05:40:44;;;;;;;6.93;4.18;;;;;;;;;;5035896;28;20029;-52
2021/08/31 05:43:10;;;;;;;7.45;3.90;;;;;;;;;;5035207;28;20063;-52
2021/08/31 05:45:36;;;;;;;10.23;4.18;;;;;;;;;;5035453;28;20067;-52
2021/08/31 05:48:02;;;;;;;4.70;3.35;;;;;;;;;;5035348;28;20036;-52
2021/08/31 05:50:28;;;;;;;9.10;3.63;;;;;;;;;;5036047;28;20018;-52
2021/08/31 05:52:54;;;;;;;7.53;4.00;;;;;;;;;;5035905;28;20079;-52
2021/08/31 05:55:20;;;;;;;6.55;3.75;;;;;;;;;;5034931;28;20443;-52
2021/08/31 05:57:46;;;;;;;8.32;3.83;;;;;;;;;;5035238;28;20065;-52
2021/08/31 06:00:12;;;;;;;5.55;3.75;;;;;;;;;;5035732;28;20018;-52
2021/08/31 06:02:38;;;;;;;8.02;3.83;;;;;;;;;;5034687;28;20483;-52
2021/08/31 06:05:05;;;;;;;10.00;3.97;;;;;;;;;;5034852;28;20021;-52
2021/08/31 06:07:34;;;;;;;9.05;4.15;;;;;;;;;;5035671;28;20362;-52
2021/08/31 06:10:00;;;;;;;7.13;4.15;;;;;;;;;;5035192;28;20072;-51
2021/08/31 06:12:26;;;;;;;7.90;3.85;;;;;;;;;;5035045;28;20029;-52
2021/08/31 06:14:52;;;;;;;10.43;4.43;;;;;;;;;;5035113;28;20097;-52
2021/08/31 06:17:19;;;;;;;11.27;4.90;;;;;;;;;;5034504;28;20037;-51
2021/08/31 06:19:45;;;;;;;8.02;3.75;;;;;;;;;;5035657;28;20116;-52
2021/08/31 06:22:12;;;;;;;9.95;4.18;;;;;;;;;;5034080;28;20033;-52
2021/08/31 06:24:38;;;;;;;6.30;3.97;;;;;;;;;;5034138;28;20025;-52
2021/08/31 06:27:04;;;;;;;5.70;3.53;;;;;;;;;;5034638;28;20029;-52
2021/08/31 06:29:30;;;;;;;8.18;3.75;;;;;;;;;;5035287;28;20478;-52
2021/08/31 06:31:57;;;;;;;4.85;3.38;;;;;;;;;;5035170;28;20033;-52
2021/08/31 06:34:23;;;;;;;7.97;3.65;;;;;;;;;;5033461;28;20041;-51
2021/08/31 06:36:49;;;;;;;8.73;3.95;;;;;;;;;;5035040;28;20021;-51
2021/08/31 06:39:15;;;;;;;4.85;3.33;;;;;;;;;;5034909;28;20025;-51
2021/08/31 06:41:41;;;;;;;7.50;3.83;;;;;;;;;;5034260;28;20036;-51
2021/08/31 06:44:07;;;;;;;8.68;4.38;;;;;;;;;;5034446;28;20041;-52
2021/08/31 06:46:33;;;;;;;8.15;3.90;;;;;;;;;;5035198;28;20044;-51
2021/08/31 06:48:59;;;;;;;6.90;4.10;;;;;;;;;;5030768;28;20367;-51
2021/08/31 06:51:25;;;;;;;9.15;3.72;;;;;;;;;;5034843;28;20479;-51
2021/08/31 06:53:51;;;;;;;6.85;3.97;;;;;;;;;;5033800;28;20057;-51
2021/08/31 06:56:20;;;;;;;6.57;4.00;;;;;;;;;;5034234;28;20065;-51
2021/08/31 06:58:46;;;;;;;12.05;4.45;;;;;;;;;;5034293;28;20033;-51
2021/08/31 07:01:12;;;;;;;8.68;4.03;;;;;;;;;;5034716;28;20033;-52
2021/08/31 07:03:38;;;;;;;6.85;3.60;;;;;;;;;;5032929;28;20038;-52
2021/08/31 07:06:04;;;;;;;7.88;3.90;;;;;;;;;;5034523;28;20053;-52
2021/08/31 07:08:30;;;;;;;5.55;3.50;;;;;;;;;;5034401;28;20037;-52
2021/08/31 07:10:56;;;;;;;7.88;3.72;;;;;;;;;;5033931;28;20443;-52
2021/08/31 07:13:23;;;;;;;6.10;3.50;;;;;;;;;;5025740;28;20033;-52
2021/08/31 07:15:49;;;;;;;5.82;2.80;;;;;;;;;;5034640;28;20025;-52
2021/08/31 07:18:15;;;;;;;5.88;3.83;;;;;;;;;;5033211;28;20025;-52
2021/08/31 07:20:41;;;;;;;3.97;2.65;;;;;;;;;;5034327;28;20037;-52
2021/08/31 07:23:07;;;;;;;7.72;2.90;;;;;;;;;;5033886;28;20033;-52
2021/08/31 07:25:33;;;;;;;3.55;2.60;;;;;;;;;;5032696;28;20140;-52
2021/08/31 07:27:59;;;;;;;5.35;3.65;;;;;;;;;;5033696;28;20038;-52
2021/08/31 07:30:25;;;;;;;5.50;2.97;;;;;;;;;;5034193;28;20025;-52
2021/08/31 07:32:51;;;;;;;6.20;3.35;;;;;;;;;;5032512;28;20026;-52
2021/08/31 07:35:17;;;;;;;5.32;3.38;;;;;;;;;;5033277;28;20096;-52
2021/08/31 07:37:43;;;;;;;7.05;2.97;;;;;;;;;;5033954;28;20358;-51
2021/08/31 07:40:09;;;;;;;4.50;2.90;;;;;;;;;;5033293;28;20025;-52
2021/08/31 07:42:36;;;;;;;10.35;3.05;;;;;;;;;;5033538;28;20028;-52
2021/08/31 07:45:07;;;;;;;5.35;3.28;;;;;;;;;;5033318;28;20112;-52
2021/08/31 07:47:33;;;;;;;4.85;3.30;;;;;;;;;;5033836;28;20025;-52
2021/08/31 07:49:59;;;;;;;7.05;3.83;;;;;;;;;;5032948;28;20037;-52
2021/08/31 07:52:25;;;;;;;4.97;2.97;;;;;;;;;;5033485;28;20332;-52
2021/08/31 07:54:51;;;;;;;3.85;2.63;;;;;;;;;;5032365;28;20029;-52
2021/08/31 07:57:17;;;;;;;4.05;2.70;;;;;;;;;;5033858;28;20108;-52
2021/08/31 07:59:43;;;;;;;5.80;3.17;;;;;;;;;;5033345;28;20443;-52
2021/08/31 08:02:09;;;;;;;5.43;2.92;;;;;;;;;;5033432;28;20039;-52
2021/08/31 08:04:35;;;;;;;5.75;3.10;;;;;;;;;;5032099;28;20033;-52
2021/08/31 08:07:01;;;;;;;5.38;2.88;;;;;;;;;;5032884;28;20072;-52
2021/08/31 08:09:27;;;;;;;4.47;2.70;;;;;;;;;;5033450;28;20022;-51
2021/08/31 08:11:53;;;;;;;8.75;2.78;;;;;;;;;;5032999;28;20029;-52
2021/08/31 08:14:19;;;;;;;6.35;3.28;;;;;;;;;;5032393;28;20025;-52
2021/08/31 08:16:45;;;;;;;4.07;2.75;;;;;;;;;;5033294;28;20399;-52
2021/08/31 08:19:11;;;;;;;4.30;3.08;;;;;;;;;;5032282;28;20028;-52
2021/08/31 08:21:37;;;;;;;3.40;2.30;;;;;;;;;;5032888;28;20034;-52
2021/08/31 08:24:08;;;;;;;4.53;1.80;;;;;;;;;;5032346;28;20037;-52
2021/08/31 08:26:34;;;;;;;4.00;2.20;;;;;;;;;;5032788;28;20112;-53
2021/08/31 08:29:00;;;;;;;3.97;2.03;;;;;;;;;;5032961;28;20458;-52
2021/08/31 08:31:26;;;;;;;5.00;2.38;;;;;;;;;;5032960;28;20096;-53
2021/08/31 08:33:52;;;;;;;4.85;2.15;;;;;;;;;;5031430;28;20032;-52
2021/08/31 08:36:18;;;;;;;2.33;2.03;;;;;;;;;;5032806;28;20394;-51
2021/08/31 08:38:43;;;;;;;6.60;2.40;;;;;;;;;;5033182;28;20036;-51
2021/08/31 08:41:10;;;;;;;4.45;2.35;;;;;;;;;;5030615;28;20335;-51
2021/08/31 08:43:36;;;;;;;5.18;2.03;;;;;;;;;;5024782;28;20083;-52
2021/08/31 08:46:04;;;;;;;4.10;2.10;;;;;;;;;;5031158;28;20064;-52
2021/08/31 08:48:30;;;;;;;4.55;2.85;;;;;;;;;;5032169;28;20026;-51
2021/08/31 08:50:57;;;;;;;2.90;2.00;;;;;;;;;;5031747;28;20029;-51
2021/08/31 08:53:25;;;;;;;6.45;2.95;;;;;;;;;;5032043;28;20521;-52
2021/08/31 08:55:52;;;;;;;3.85;2.63;;;;;;;;;;5032345;28;20030;-52
2021/08/31 08:58:18;;;;;;;3.65;2.53;;;;;;;;;;5032765;28;20025;-52
2021/08/31 09:01:13;;;;;;;9.05;2.88;;;;;;;;;;5032432;28;20029;-52
2021/08/31 09:03:40;;;;;;;4.28;2.65;;;;;;;;;;5030653;28;20049;-52
2021/08/31 09:06:10;;;;;;;5.68;3.08;;;;;;;;;;5032909;28;20021;-52
2021/08/31 09:08:37;;;;;;;4.97;3.17;;;;;;;;;;5032730;28;20068;-52
2021/08/31 09:11:19;;;;;;;4.10;2.83;;;;;;;;;;5031715;28;20030;-52
2021/08/31 09:13:45;;;;;;;6.10;3.40;;;;;;;;;;5031349;28;20025;-52
2021/08/31 09:16:28;;;;;;;4.80;3.42;;;;;;;;;;5032575;28;20076;-51
2021/08/31 09:18:55;;;;;;;4.25;3.08;;;;;;;;;;5031869;28;20033;-52
2021/08/31 09:21:26;;;;;;;4.88;2.80;;;;;;;;;;5032822;28;20108;-51
2021/08/31 09:23:54;;;;;;;5.47;2.85;;;;;;;;;;5031548;28;20076;-52
2021/08/31 09:26:31;;;;;;;4.20;2.83;;;;;;;;;;5031027;28;20398;-51
2021/08/31 09:29:01;;;;;;;4.20;2.95;;;;;;;;;;5032523;28;20113;-51
2021/08/31 09:31:28;;;;;;;4.68;2.72;;;;;;;;;;5032767;28;20028;-52
2021/08/31 09:33:56;;;;;;;4.75;2.58;;;;;;;;;;5030814;28;20052;-52
2021/08/31 09:36:24;;;;;;;7.10;3.08;;;;;;;;;;5032140;28;20398;-52
2021/08/31 09:38:51;;;;;;;5.65;3.10;;;;;;;;;;5032378;28;20072;-51
2021/08/31 09:41:35;;;;;;;4.35;2.53;;;;;;;;;;5031647;28;20025;-51
2021/08/31 09:44:03;;;;;;;8.15;3.15;;;;;;;;;;5031281;28;20140;-51
2021/08/31 09:46:47;;;;;;;3.35;2.55;;;;;;;;;;5032674;28;20029;-51
2021/08/31 09:49:17;;;;;;;4.95;2.90;;;;;;;;;;5031027;28;20455;-52
2021/08/31 09:51:58;;;;;;;5.95;3.15;;;;;;;;;;5032343;28;20030;-52
2021/08/31 09:54:24;;;;;;;5.50;2.90;;;;;;;;;;5029382;28;20088;-51
2021/08/31 09:56:50;;;;;;;5.60;3.33;;;;;;;;;;5034684;28;20455;-52
2021/08/31 09:59:16;;;;;;;5.60;2.90;;;;;;;;;;5035839;28;20239;-51
2021/08/31 10:01:42;;;;;;;6.10;3.28;;;;;;;;;;5036071;28;20104;-51
2021/08/31 10:04:08;;;;;;;6.82;3.55;;;;;;;;;;5033772;28;20125;-52
2021/08/31 10:06:34;;;;;;;7.70;2.80;;;;;;;;;;5035291;28;20025;-52
2021/08/31 10:09:00;;;;;;;8.55;3.35;;;;;;;;;;5035954;28;20029;-51
2021/08/31 10:11:27;;;;;;;4.90;2.70;;;;;;;;;;5034882;28;20360;-51
2021/08/31 10:13:53;;;;;;;4.65;2.58;;;;;;;;;;5034752;28;20332;-52
2021/08/31 10:16:21;;;;;;;9.80;3.33;;;;;;;;;;5035209;28;20018;-52
2021/08/31 10:18:47;;;;;;;10.15;3.17;;;;;;;;;;5035357;28;20033;-52
2021/08/31 10:21:14;;;;;;;5.15;3.17;;;;;;;;;;5034478;28;20033;-51
2021/08/31 10:23:43;;;;;;;7.22;3.28;;;;;;;;;;5034550;28;20037;-51
2021/08/31 10:26:27;;;;;;;4.20;2.83;;;;;;;;;;5034554;28;20021;-51
2021/08/31 10:29:12;;;;;;;7.63;3.80;;;;;;;;;;5034426;28;20037;-52
2021/08/31 10:31:38;;;;;;;6.28;3.40;;;;;;;;;;5035289;28;20095;-51
2021/08/31 10:34:24;;;;;;;6.25;3.22;;;;;;;;;;5034654;28;20398;-51
2021/08/31 10:36:59;;;;;;;8.38;3.25;;;;;;;;;;5034882;28;20033;-52
2021/08/31 10:39:41;;;;;;;4.53;2.75;;;;;;;;;;5035193;28;20041;-51
2021/08/31 10:42:09;;;;;;;5.53;3.30;;;;;;;;;;5034254;28;20029;-51
2021/08/31 10:44:38;;;;;;;5.05;3.03;;;;;;;;;;5034015;28;20068;-51
2021/08/31 10:47:05;;;;;;;6.35;3.55;;;;;;;;;;5034847;28;20030;-52
2021/08/31 10:49:31;;;;;;;8.07;3.30;;;;;;;;;;5034356;28;20454;-52
2021/08/31 10:52:05;;;;;;;4.35;2.58;;;;;;;;;;5034334;28;20439;-52
2021/08/31 10:54:43;;;;;;;5.18;3.38;;;;;;;;;;5049531;28;20029;-51
2021/08/31 10:57:28;;;;;;;5.07;2.85;;;;;;;;;;5033928;28;20041;-52
2021/08/31 10:59:54;;;;;;;5.75;2.85;;;;;;;;;;5034991;28;20047;-51
2021/08/31 11:02:52;;;;;;;6.50;2.92;;;;;;;;;;5033909;28;20100;-51
2021/08/31 11:05:21;;;;;;;5.80;3.45;;;;;;;;;;5032979;28;20029;-52
2021/08/31 11:07:48;;;;;;;5.35;3.25;;;;;;;;;;5033992;28;20196;-52
2021/08/31 11:10:20;;;;;;;5.10;3.05;;;;;;;;;;5034270;28;20466;-52
2021/08/31 11:12:47;;;;;;;5.75;3.17;;;;;;;;;;5033212;28;20116;-51
2021/08/31 11:15:19;;;;;;;5.47;2.90;;;;;;;;;;5033287;28;20351;-51
2021/08/31 11:17:47;;;;;;;5.97;3.47;;;;;;;;;;5034511;28;20340;-51
2021/08/31 11:20:15;;;;;;;4.03;3.20;;;;;;;;;;5033637;28;20080;-51
2021/08/31 11:22:42;;;;;;;4.47;2.85;;;;;;;;;;5034009;28;20033;-51
2021/08/31 11:25:08;;;;;;;7.40;3.30;;;;;;;;;;5033503;28;20359;-51
2021/08/31 11:27:53;;;;;;;5.80;3.10;;;;;;;;;;5033359;28;20060;-52
2021/08/31 11:30:19;;;;;;;5.72;3.47;;;;;;;;;;5034070;28;20022;-51
2021/08/31 11:32:46;;;;;;;7.57;3.17;;;;;;;;;;5034080;28;20030;-52
2021/08/31 11:35:12;;;;;;;6.07;3.80;;;;;;;;;;5032603;28;20048;-52
2021/08/31 11:37:47;;;;;;;6.25;3.53;;;;;;;;;;5033428;28;20128;-51
2021/08/31 11:40:13;;;;;;;5.70;3.25;;;;;;;;;;5034060;28;20373;-52
2021/08/31 11:42:49;;;;;;;5.20;2.92;;;;;;;;;;5032959;28;20061;-52
2021/08/31 11:45:16;;;;;;;4.57;3.58;;;;;;;;;;5033009;28;20048;-52
2021/08/31 11:47:42;;;;;;;5.07;3.17;;;;;;;;;;5033410;28;20105;-52
2021/08/31 11:50:08;;;;;;;6.55;2.78;;;;;;;;;;5032862;28;20390;-51
2021/08/31 11:52:34;;;;;;;5.47;3.17;;;;;;;;;;5033750;28;20079;-51
2021/08/31 11:55:00;;;;;;;4.68;2.90;;;;;;;;;;5032656;28;20033;-52
2021/08/31 11:57:30;;;;;;;5.97;3.38;;;;;;;;;;5033274;28;20029;-52
2021/08/31 11:59:56;;;;;;;6.55;2.88;;;;;;;;;;5033352;28;20025;-52
2021/08/31 12:02:22;;;;;;;6.70;3.40;;;;;;;;;;5033456;28;20033;-51
2021/08/31 12:04:57;;;;;;;5.13;2.60;;;;;;;;;;5032260;28;20386;-51
2021/08/31 12:07:44;;;;;;;5.32;3.05;;;;;;;;;;5032755;28;20055;-52
2021/08/31 12:10:14;;;;;;;4.90;2.72;;;;;;;;;;5033106;28;20053;-51
2021/08/31 12:12:43;;;;;;;4.53;2.78;;;;;;;;;;5032498;28;20474;-52
2021/08/31 12:15:09;;;;;;;5.88;3.28;;;;;;;;;;5032090;28;20455;-52
2021/08/31 12:17:43;;;;;;;5.68;3.20;;;;;;;;;;5033326;28;20447;-52
2021/08/31 12:20:14;;;;;;;4.75;3.13;;;;;;;;;;5032719;28;20122;-52
2021/08/31 12:22:44;;;;;;;8.75;3.05;;;;;;;;;;5032338;28;20068;-52
2021/08/31 12:25:11;;;;;;;7.05;2.88;;;;;;;;;;5032804;28;20078;-52
2021/08/31 12:27:45;;;;;;;7.85;3.35;;;;;;;;;;5032296;28;20036;-52
2021/08/31 12:30:12;;;;;;;9.68;2.97;;;;;;;;;;5032797;28;20508;-52
2021/08/31 12:32:39;;;;;;;8.05;3.40;;;;;;;;;;5033206;28;20037;-52
2021/08/31 12:35:22;;;;;;;4.85;2.83;;;;;;;;;;5032269;28;20127;-52
2021/08/31 12:37:48;;;;;;;6.32;2.72;;;;;;;;;;5032309;28;20038;-52
2021/08/31 12:40:21;;;;;;;6.90;2.30;;;;;;;;;;5032943;28;20029;-51
2021/08/31 12:42:48;;;;;;;5.25;2.50;;;;;;;;;;5026747;28;20045;-52
2021/08/31 12:45:24;;;;;;;4.30;2.35;;;;;;;;;;5029219;28;20017;-51
2021/08/31 12:47:52;;;;;;;2.78;2.25;;;;;;;;;;5033418;28;20139;-51
2021/08/31 12:50:18;;;;;;;4.30;2.47;;;;;;;;;;5023081;28;20034;-52
2021/08/31 12:52:44;;;;;;;5.50;3.03;;;;;;;;;;5025791;28;20296;-52
2021/08/31 12:55:16;;;;;;;5.78;3.28;;;;;;;;;;5032053;28;20443;-52
2021/08/31 12:57:42;;;;;;;4.40;2.47;;;;;;;;;;5032087;28;20074;-52
2021/08/31 13:00:22;;;;;;;3.28;2.33;;;;;;;;;;5032340;28;20020;-52
2021/08/31 13:02:51;;;;;;;3.22;2.42;;;;;;;;;;5032638;28;20448;-52
2021/08/31 13:05:17;;;;;;;6.47;2.93;;;;;;;;;;5032419;28;20233;-52
2021/08/31 13:07:43;;;;;;;3.45;2.35;;;;;;;;;;5031349;28;20034;-52
2021/08/31 13:10:09;;;;;;;3.78;2.50;;;;;;;;;;5032408;28;20025;-52
2021/08/31 13:12:36;;;;;;;5.03;2.75;;;;;;;;;;5032285;28;20121;-52
2021/08/31 13:15:02;;;;;;;6.78;3.30;;;;;;;;;;5031815;28;20030;-52
2021/08/31 13:17:28;;;;;;;4.70;2.67;;;;;;;;;;5032593;28;20026;-52
2021/08/31 13:19:54;;;;;;;5.70;2.97;;;;;;;;;;5032671;28;20379;-51
2021/08/31 13:22:21;;;;;;;3.13;2.28;;;;;;;;;;5031612;28;20109;-52
2021/08/31 13:24:47;;;;;;;4.10;2.58;;;;;;;;;;5031597;28;20036;-52
2021/08/31 13:27:14;;;;;;;5.55;2.38;;;;;;;;;;5031848;28;20490;-51
2021/08/31 13:29:41;;;;;;;3.50;2.47;;;;;;;;;;5032434;28;20045;-52
2021/08/31 13:32:07;;;;;;;3.63;2.50;;;;;;;;;;5035702;28;20068;-51
2021/08/31 13:34:33;;;;;;;4.05;2.28;;;;;;;;;;5035948;28;20080;-52
2021/08/31 13:36:59;;;;;;;3.75;2.72;;;;;;;;;;5035038;28;20060;-52
2021/08/31 13:39:25;;;;;;;3.95;2.72;;;;;;;;;;5036489;28;20033;-51
2021/08/31 13:41:52;;;;;;;4.93;3.05;;;;;;;;;;5035827;28;20021;-52
2021/08/31 13:44:18;;;;;;;5.07;2.85;;;;;;;;;;5034972;28;20045;-52
2021/08/31 13:46:44;;;;;;;3.97;2.20;;;;;;;;;;5036018;28;20352;-52
2021/08/31 13:49:12;;;;;;;7.85;3.47;;;;;;;;;;5035948;28;20033;-52
2021/08/31 13:51:38;;;;;;;5.05;3.03;;;;;;;;;;5034648;28;20034;-51
2021/08/31 13:54:04;;;;;;;6.15;2.67;;;;;;;;;;5035272;28;20183;-52
2021/08/31 13:56:30;;;;;;;5.00;2.90;;;;;;;;;;5035823;28;20029;-51
2021/08/31 13:58:56;;;;;;;4.80;2.63;;;;;;;;;;5035572;28;20017;-52
2021/08/31 14:01:22;;;;;;;7.75;2.90;;;;;;;;;;5035674;28;20355;-52
2021/08/31 14:03:48;;;;;;;5.50;2.67;;;;;;;;;;5034857;28;20087;-52
2021/08/31 14:06:14;;;;;;;4.18;2.47;;;;;;;;;;5034908;28;20025;-52
2021/08/31 14:08:46;;;;;;;4.18;2.60;;;;;;;;;;5035310;28;20052;-52
2021/08/31 14:11:12;;;;;;;4.38;2.50;;;;;;;;;;5036098;28;20079;-52
2021/08/31 14:13:38;;;;;;;4.03;2.28;;;;;;;;;;5034350;28;20032;-52
2021/08/31 14:16:04;;;;;;;5.18;2.70;;;;;;;;;;5035728;28;20021;-52
2021/08/31 14:18:30;;;;;;;5.00;2.75;;;;;;;;;;5035536;28;20049;-52
2021/08/31 14:20:56;;;;;;;6.63;3.70;;;;;;;;;;5035531;28;20033;-51
2021/08/31 14:23:23;;;;;;;14.52;3.08;;;;;;;;;;5033854;28;20041;-52
2021/08/31 14:25:49;;;;;;;9.52;2.85;;;;;;;;;;5034537;28;20022;-51
2021/08/31 14:28:16;;;;;;;7.05;2.75;;;;;;;;;;5034657;28;20078;-52
2021/08/31 14:30:43;;;;;;;8.77;3.33;;;;;;;;;;5035216;28;20021;-52
2021/08/31 14:33:09;;;;;;;4.97;2.95;;;;;;;;;;5034973;28;20079;-52
2021/08/31 14:35:35;;;;;;;7.45;3.55;;;;;;;;;;5034299;28;20029;-52
2021/08/31 14:38:01;;;;;;;6.13;3.03;;;;;;;;;;5034072;28;20025;-51
2021/08/31 14:40:27;;;;;;;4.65;3.20;;;;;;;;;;5035173;28;20037;-52
2021/08/31 14:42:53;;;;;;;6.47;3.50;;;;;;;;;;5033340;28;20037;-52
2021/08/31 14:45:19;;;;;;;5.05;3.00;;;;;;;;;;5034313;28;20426;-52